createdAt,value
2023-01-09T00:01:43.000Z,11.13
2023-01-09T00:04:10.276Z,10.38
2023-01-09T00:06:37.365Z,10.85
2023-01-09T00:09:04.335Z,11.50
2023-01-09T00:11:35.519Z,11.15
2023-01-09T00:14:02.716Z,10.75
2023-01-09T00:16:29.893Z,11.23
2023-01-09T00:18:56.833Z,10.60
2023-01-09T00:21:23.809Z,11.70
2023-01-09T00:23:54.228Z,11.60
2023-01-09T00:26:21.500Z,12.48
2023-01-09T00:28:50.740Z,12.18
2023-01-09T00:31:18.747Z,12.15
2023-01-09T00:34:07.376Z,10.50
2023-01-09T00:36:34.305Z,10.82
2023-01-09T00:39:01.509Z,10.20
2023-01-09T00:41:47.274Z,9.07
2023-01-09T00:44:18.388Z,9.18
2023-01-09T00:49:16.827Z,8.20
2023-01-09T00:51:43.882Z,9.20
2023-01-09T00:54:13.684Z,8.68
2023-01-09T00:56:40.871Z,9.88
2023-01-09T00:59:08.329Z,9.93
2023-01-09T01:01:35.738Z,10.32
2023-01-09T01:04:22.706Z,10.50
2023-01-09T01:07:07.992Z,12.13
2023-01-09T01:09:34.894Z,13.40
2023-01-09T01:12:07.251Z,11.93
2023-01-09T01:14:37.796Z,11.82
2023-01-09T01:17:05.674Z,11.07
2023-01-09T01:19:34.346Z,11.88
2023-01-09T01:22:01.811Z,12.45
2023-01-09T01:24:28.933Z,12.10
2023-01-09T01:26:56.059Z,11.57
2023-01-09T01:30:40.682Z,10.73
2023-01-09T01:33:11.821Z,10.02
2023-01-09T01:35:41.638Z,11.80
2023-01-09T01:38:08.965Z,10.85
2023-01-09T01:40:38.355Z,10.88
2023-01-09T01:43:05.409Z,9.23
2023-01-09T01:45:33.358Z,10.77
2023-01-09T01:48:03.966Z,10.77
2023-01-09T01:50:33.891Z,10.20
2023-01-09T01:53:17.250Z,9.48
2023-01-09T01:55:54.539Z,10.43
2023-01-09T01:58:22.146Z,10.43
2023-01-09T02:00:50.024Z,9.82
2023-01-09T02:07:13.189Z,11.88
2023-01-09T02:09:54.625Z,10.07
2023-01-09T02:12:26.988Z,10.48
2023-01-09T02:15:14.566Z,9.82
2023-01-09T02:17:50.892Z,11.20
2023-01-09T02:20:52.369Z,9.80
2023-01-09T02:23:47.070Z,10.38
2023-01-09T02:26:37.035Z,9.35
2023-01-09T02:29:22.655Z,10.65
2023-01-09T02:32:07.164Z,11.95
2023-01-09T02:34:45.181Z,10.85
2023-01-09T02:37:22.320Z,11.90
2023-01-09T02:40:03.663Z,10.15
2023-01-09T02:42:34.285Z,11.65
2023-01-09T02:45:01.263Z,11.57
2023-01-09T02:47:29.429Z,10.60
2023-01-09T02:50:02.124Z,10.85
2023-01-09T02:53:03.371Z,8.73
2023-01-09T02:55:55.807Z,10.98
2023-01-09T02:59:54.085Z,11.30
2023-01-09T03:10:46.758Z,12.82
2023-01-09T03:14:40.153Z,13.00
2023-01-09T03:17:14.360Z,12.65
2023-01-09T03:19:43.202Z,16.33
2023-01-09T03:22:10.365Z,13.90
2023-01-09T03:24:48.044Z,13.65
2023-01-09T03:27:15.420Z,12.10
2023-01-09T03:29:42.418Z,12.50
2023-01-09T03:32:09.315Z,12.90
2023-01-09T03:34:36.474Z,11.82
2023-01-09T03:37:05.684Z,11.05
2023-01-09T03:40:58.189Z,11.68
2023-01-09T03:43:40.577Z,13.82
2023-01-09T03:46:07.554Z,12.48
2023-01-09T03:48:34.853Z,12.05
2023-01-09T03:51:01.764Z,10.27
2023-01-09T03:53:29.466Z,11.15
2023-01-09T03:55:58.194Z,11.18
2023-01-09T03:58:26.350Z,10.95
2023-01-09T04:01:01.215Z,11.65
2023-01-09T04:07:52.475Z,11.23
2023-01-09T04:10:19.526Z,11.85
2023-01-09T04:12:46.475Z,14.13
2023-01-09T04:15:13.377Z,14.20
2023-01-09T04:20:53.388Z,12.95
2023-01-09T04:23:21.918Z,14.02
2023-01-09T04:25:49.141Z,15.13
2023-01-09T04:28:16.046Z,15.27
2023-01-09T04:30:43.104Z,14.77
2023-01-09T04:33:09.985Z,16.60
2023-01-09T04:35:37.090Z,17.73
2023-01-09T04:38:04.017Z,16.45
2023-01-09T04:40:31.156Z,15.27
2023-01-09T04:42:58.099Z,14.98
2023-01-09T04:45:25.151Z,15.05
2023-01-09T04:47:52.078Z,14.05
2023-01-09T04:50:22.256Z,14.65
2023-01-09T04:52:53.201Z,14.43
2023-01-09T05:00:56.980Z,14.75
2023-01-09T05:03:24.083Z,15.18
2023-01-09T05:05:50.936Z,15.65
2023-01-09T05:08:17.811Z,23.48
2023-01-09T05:10:44.829Z,21.42
2023-01-09T05:13:11.951Z,18.40
2023-01-09T05:15:38.895Z,16.85
2023-01-09T05:18:05.811Z,20.55
2023-01-09T05:20:32.853Z,20.40
2023-01-09T05:22:59.698Z,18.67
2023-01-09T05:25:27.066Z,18.02
2023-01-09T05:27:53.952Z,19.83
2023-01-09T05:30:20.933Z,24.73
2023-01-09T05:32:47.759Z,30.65
2023-01-09T05:35:14.753Z,21.80
2023-01-09T05:37:41.767Z,25.10
2023-01-09T05:40:09.549Z,25.55
2023-01-09T05:42:36.431Z,25.20
2023-01-09T05:45:04.034Z,26.13
2023-01-09T05:47:30.896Z,27.75
2023-01-09T05:49:58.016Z,22.98
2023-01-09T05:52:25.076Z,21.63
2023-01-09T05:54:52.084Z,21.50
2023-01-09T05:57:19.165Z,30.00
2023-01-09T05:59:46.064Z,36.08
2023-01-09T06:02:13.137Z,25.48
2023-01-09T06:04:40.111Z,39.65
2023-01-09T06:07:07.331Z,31.58
2023-01-09T06:09:34.817Z,34.65
2023-01-09T06:12:01.695Z,34.08
2023-01-09T06:14:28.636Z,61.47
2023-01-09T06:16:56.270Z,92.93
2023-01-09T06:19:23.295Z,96.07
2023-01-09T06:21:50.403Z,73.65
2023-01-09T06:24:17.447Z,74.90
2023-01-09T06:26:44.441Z,91.47
2023-01-09T06:29:11.567Z,93.68
2023-01-09T06:31:38.442Z,84.40
2023-01-09T06:34:05.431Z,74.75
2023-01-09T06:36:32.416Z,70.18
2023-01-09T06:38:59.390Z,59.90
2023-01-09T06:41:26.740Z,62.67
2023-01-09T06:43:53.587Z,52.28
2023-01-09T06:46:20.475Z,39.20
2023-01-09T06:48:47.314Z,44.78
2023-01-09T06:51:14.112Z,42.30
2023-01-09T06:53:41.085Z,35.88
2023-01-09T06:56:08.210Z,31.35
2023-01-09T06:58:35.241Z,32.78
2023-01-09T07:01:02.478Z,32.17
2023-01-09T07:03:30.243Z,31.40
2023-01-09T07:05:58.077Z,30.77
2023-01-09T07:08:25.040Z,30.00
2023-01-09T07:10:51.809Z,28.33
2023-01-09T07:13:18.774Z,24.55
2023-01-09T07:15:46.200Z,23.95
2023-01-09T07:18:13.114Z,27.98
2023-01-09T07:20:41.571Z,40.28
2023-01-09T07:23:13.084Z,44.92
2023-01-09T07:25:42.355Z,46.30
2023-01-09T07:28:09.286Z,46.10
2023-01-09T07:30:36.452Z,30.73
2023-01-09T07:33:04.216Z,30.75
2023-01-09T07:35:31.368Z,33.60
2023-01-09T07:37:58.291Z,35.55
2023-01-09T07:40:25.467Z,35.10
2023-01-09T07:42:55.555Z,39.70
2023-01-09T07:45:22.526Z,30.73
2023-01-09T07:47:49.370Z,41.83
2023-01-09T07:50:16.513Z,40.95
2023-01-09T07:52:45.691Z,38.33
2023-01-09T07:55:17.472Z,32.03
2023-01-09T07:57:49.957Z,33.03
2023-01-09T08:00:18.111Z,35.75
2023-01-09T08:02:45.019Z,31.63
2023-01-09T08:05:15.044Z,39.33
2023-01-09T08:07:42.983Z,43.08
2023-01-09T08:10:10.705Z,48.28
2023-01-09T08:12:39.536Z,48.13
2023-01-09T08:15:07.060Z,44.28
2023-01-09T08:17:34.194Z,45.58
2023-01-09T08:20:01.146Z,42.20
2023-01-09T08:22:28.124Z,44.55
2023-01-09T08:24:54.906Z,28.15
2023-01-09T08:27:21.793Z,27.30
2023-01-09T08:29:48.763Z,24.40
2023-01-09T08:32:15.633Z,24.35
2023-01-09T08:34:42.767Z,29.02
2023-01-09T08:37:09.607Z,30.15
2023-01-09T08:39:36.799Z,28.98
2023-01-09T08:42:22.077Z,27.70
2023-01-09T08:45:07.379Z,28.63
2023-01-09T08:47:34.513Z,39.53
2023-01-09T08:50:01.572Z,32.42
2023-01-09T08:52:30.980Z,29.55
2023-01-09T08:54:58.054Z,37.50
2023-01-09T08:57:24.908Z,33.72
2023-01-09T08:59:52.287Z,32.70
2023-01-09T09:02:19.245Z,31.90
2023-01-09T09:04:47.419Z,24.05
2023-01-09T09:07:14.875Z,27.08
2023-01-09T09:09:41.725Z,38.55
2023-01-09T09:12:08.718Z,28.17
2023-01-09T09:14:54.044Z,23.27
2023-01-09T09:17:21.005Z,9.60
2023-01-09T09:19:48.019Z,5.55
2023-01-09T09:22:15.055Z,6.03
2023-01-09T09:24:41.938Z,7.53
2023-01-09T09:27:08.772Z,8.02
2023-01-09T09:29:35.968Z,9.20
2023-01-09T09:32:02.815Z,5.82
2023-01-09T09:34:30.009Z,9.85
2023-01-09T09:36:56.908Z,7.82
2023-01-09T09:39:23.875Z,12.82
2023-01-09T09:42:51.349Z,11.55
2023-01-09T09:45:26.510Z,8.52
2023-01-09T09:48:13.681Z,8.85
2023-01-09T09:51:08.143Z,14.45
2023-01-09T09:53:53.645Z,7.85
2023-01-09T09:56:23.586Z,5.10
2023-01-09T09:59:08.374Z,7.13
2023-01-09T10:01:42.971Z,5.90
2023-01-09T10:04:14.845Z,6.15
2023-01-09T10:06:47.762Z,8.15
2023-01-09T10:09:40.452Z,9.32
2023-01-09T10:12:28.544Z,6.68
2023-01-09T10:15:01.081Z,9.65
2023-01-09T10:17:40.197Z,9.55
2023-01-09T10:20:25.472Z,9.02
2023-01-09T10:23:01.462Z,7.05
2023-01-09T10:25:28.567Z,7.18
2023-01-09T10:28:40.157Z,9.73
2023-01-09T10:31:25.428Z,8.68
2023-01-09T10:34:07.689Z,5.97
2023-01-09T10:37:00.297Z,10.02
2023-01-09T10:39:43.817Z,6.03
2023-01-09T10:42:11.551Z,6.28
2023-01-09T10:44:46.120Z,5.95
2023-01-09T10:47:19.565Z,4.68
2023-01-09T10:49:49.497Z,4.95
2023-01-09T10:52:20.581Z,5.22
2023-01-09T10:54:58.399Z,4.32
2023-01-09T10:57:41.788Z,6.18
2023-01-09T11:00:22.332Z,5.13
2023-01-09T11:02:51.772Z,4.50
2023-01-09T11:05:26.738Z,4.35
2023-01-09T11:08:01.279Z,5.15
2023-01-09T11:10:51.836Z,6.45
2023-01-09T11:13:23.528Z,11.80
2023-01-09T11:16:06.714Z,6.60
2023-01-09T11:18:58.851Z,4.65
2023-01-09T11:21:40.701Z,6.18
2023-01-09T11:24:19.415Z,5.32
2023-01-09T11:26:47.655Z,2.60
2023-01-09T11:29:17.253Z,2.40
2023-01-09T11:31:54.951Z,3.05
2023-01-09T11:34:25.277Z,3.15
2023-01-09T11:36:54.496Z,3.33
2023-01-09T11:39:27.261Z,3.60
2023-01-09T11:42:06.503Z,4.03
2023-01-09T11:44:33.645Z,2.78
2023-01-09T11:47:00.644Z,2.85
2023-01-09T11:49:30.561Z,2.30
2023-01-09T11:52:12.522Z,1.98
2023-01-09T11:54:47.110Z,2.50
2023-01-09T11:57:14.331Z,2.65
2023-01-09T11:59:41.389Z,2.90
2023-01-09T12:02:23.660Z,2.33
2023-01-09T12:04:58.724Z,1.98
2023-01-09T12:07:35.772Z,2.35
2023-01-09T12:10:05.294Z,2.85
2023-01-09T12:13:18.661Z,4.03
2023-01-09T12:16:04.383Z,2.13
2023-01-09T12:18:37.260Z,4.30
2023-01-09T12:21:35.912Z,2.67
2023-01-09T12:24:47.855Z,5.35
2023-01-09T12:30:26.303Z,5.45
2023-01-09T12:33:02.313Z,3.03
2023-01-09T12:35:44.662Z,5.22
2023-01-09T12:38:40.616Z,8.18
2023-01-09T12:41:08.130Z,4.00
2023-01-09T12:43:53.600Z,4.93
2023-01-09T12:46:22.482Z,4.07
2023-01-09T12:48:49.358Z,3.65
2023-01-09T12:51:42.198Z,5.13
2023-01-09T12:54:14.984Z,32.67
2023-01-09T12:56:49.044Z,4.20
2023-01-09T12:59:18.786Z,7.93
2023-01-09T13:01:48.731Z,18.38
2023-01-09T13:04:43.319Z,10.00
2023-01-09T13:07:21.492Z,4.38
2023-01-09T13:10:02.759Z,4.22
2023-01-09T13:12:35.991Z,4.70
2023-01-09T13:15:15.284Z,5.50
2023-01-09T13:17:51.625Z,5.82
2023-01-09T13:20:49.287Z,5.00
2023-01-09T13:23:36.375Z,3.33
2023-01-09T13:26:06.741Z,3.47
2023-01-09T13:28:47.012Z,3.22
2023-01-09T13:31:47.777Z,7.95
2023-01-09T13:34:22.580Z,8.20
2023-01-09T13:36:53.509Z,26.08
2023-01-09T13:39:27.392Z,28.13
2023-01-09T13:42:22.499Z,24.98
2023-01-09T13:44:55.413Z,1.95
2023-01-09T13:47:26.253Z,5.03
2023-01-09T13:49:53.170Z,7.22
2023-01-09T13:52:26.251Z,4.30
2023-01-09T13:54:56.399Z,4.20
2023-01-09T13:57:31.354Z,4.40
2023-01-09T14:00:19.264Z,5.15
2023-01-09T14:02:46.962Z,4.75
2023-01-09T14:05:25.723Z,7.10
2023-01-09T14:08:03.781Z,5.80
2023-01-09T14:10:35.229Z,7.82
2023-01-09T14:13:08.937Z,4.60
2023-01-09T14:15:46.577Z,4.38
2023-01-09T14:18:28.720Z,8.32
2023-01-09T14:21:00.204Z,19.63
2023-01-09T14:26:21.871Z,23.83
2023-01-09T14:28:48.914Z,6.70
2023-01-09T14:31:30.536Z,5.45
2023-01-09T14:34:31.175Z,3.95
2023-01-09T14:37:02.457Z,4.85
2023-01-09T14:39:33.421Z,5.60
2023-01-09T14:42:07.765Z,7.20
2023-01-09T14:45:06.447Z,13.98
2023-01-09T14:47:55.861Z,10.25
2023-01-09T14:50:34.700Z,21.48
2023-01-09T14:53:37.231Z,12.75
2023-01-09T14:56:07.603Z,22.70
2023-01-09T14:58:36.198Z,9.40
2023-01-09T15:01:03.308Z,6.68
2023-01-09T15:03:50.004Z,4.10
2023-01-09T15:06:23.394Z,5.47
2023-01-09T15:09:09.221Z,7.85
2023-01-09T15:11:39.910Z,7.50
2023-01-09T15:14:09.015Z,4.72
2023-01-09T15:16:36.337Z,10.70
2023-01-09T15:19:08.435Z,11.98
2023-01-09T15:21:35.532Z,10.32
2023-01-09T15:24:23.434Z,7.43
2023-01-09T15:26:55.639Z,6.93
2023-01-09T15:29:23.122Z,7.13
2023-01-09T15:32:03.930Z,5.07
2023-01-09T15:34:32.406Z,4.20
2023-01-09T15:36:59.896Z,4.20
2023-01-09T15:39:34.661Z,11.15
2023-01-09T15:42:21.061Z,9.82
2023-01-09T15:44:52.271Z,8.70
2023-01-09T15:47:29.389Z,7.57
2023-01-09T15:49:57.880Z,8.40
2023-01-09T15:52:24.871Z,10.07
2023-01-09T15:54:52.139Z,10.52
2023-01-09T15:57:24.902Z,11.38
2023-01-09T15:59:53.140Z,25.27
2023-01-09T16:02:40.876Z,16.02
2023-01-09T16:05:14.194Z,10.85
2023-01-09T16:07:51.256Z,14.60
2023-01-09T16:10:32.901Z,12.18
2023-01-09T16:13:00.933Z,13.05
2023-01-09T16:15:33.394Z,12.00
2023-01-09T16:18:12.423Z,17.20
2023-01-09T16:20:40.304Z,38.42
2023-01-09T16:23:20.512Z,31.00
2023-01-09T16:25:47.512Z,38.15
2023-01-09T16:28:30.807Z,24.02
2023-01-09T16:31:14.175Z,23.15
2023-01-09T16:33:48.621Z,17.92
2023-01-09T16:36:19.929Z,16.02
2023-01-09T16:41:38.454Z,25.42
2023-01-09T16:44:11.463Z,33.85
2023-01-09T16:46:43.722Z,35.47
2023-01-09T16:49:25.489Z,29.63
2023-01-09T16:51:53.748Z,24.40
2023-01-09T16:54:22.327Z,21.30
2023-01-09T16:56:56.795Z,16.30
2023-01-09T16:59:27.316Z,38.72
2023-01-09T17:01:55.534Z,43.93
2023-01-09T17:04:26.328Z,28.92
2023-01-09T17:06:53.309Z,23.52
2023-01-09T17:09:23.664Z,19.52
2023-01-09T17:11:52.138Z,18.00
2023-01-09T17:14:19.053Z,18.27
2023-01-09T17:16:46.773Z,22.58
2023-01-09T17:19:18.801Z,26.65
2023-01-09T17:21:46.199Z,29.70
2023-01-09T17:24:31.439Z,26.45
2023-01-09T17:27:18.220Z,25.77
2023-01-09T17:29:52.823Z,27.92
2023-01-09T17:32:19.802Z,26.48
2023-01-09T17:34:46.761Z,27.95
2023-01-09T17:37:15.958Z,22.65
2023-01-09T17:39:44.264Z,28.15
2023-01-09T17:42:11.488Z,29.15
2023-01-09T17:44:38.626Z,29.67
2023-01-09T17:47:06.310Z,30.98
2023-01-09T17:49:33.428Z,30.85
2023-01-09T17:52:00.580Z,36.85
2023-01-09T17:54:27.805Z,29.95
2023-01-09T17:56:55.271Z,27.67
2023-01-09T17:59:22.377Z,25.98
2023-01-09T18:01:49.431Z,24.08
2023-01-09T18:04:16.381Z,25.98
2023-01-09T18:06:43.313Z,22.08
2023-01-09T18:09:15.795Z,27.27
2023-01-09T18:11:45.570Z,24.70
2023-01-09T18:14:13.848Z,24.98
2023-01-09T18:16:41.117Z,27.95
2023-01-09T18:19:08.083Z,28.23
2023-01-09T18:21:35.096Z,30.25
2023-01-09T18:24:02.333Z,31.95
2023-01-09T18:26:29.258Z,37.58
2023-01-09T18:28:59.546Z,30.70
2023-01-09T18:31:28.109Z,29.10
2023-01-09T18:33:57.452Z,34.55
2023-01-09T18:36:30.763Z,34.42
2023-01-09T18:39:00.043Z,40.97
2023-01-09T18:41:28.620Z,39.25
2023-01-09T18:43:59.986Z,38.45
2023-01-09T18:46:31.719Z,24.38
2023-01-09T18:49:02.374Z,25.83
2023-01-09T18:51:30.373Z,32.75
2023-01-09T18:53:59.750Z,28.77
2023-01-09T18:56:27.998Z,31.55
2023-01-09T18:58:59.281Z,30.05
2023-01-09T19:01:28.897Z,32.15
2023-01-09T19:03:56.931Z,29.92
2023-01-09T19:06:24.323Z,37.50
2023-01-09T19:08:51.434Z,32.22
2023-01-09T19:11:18.474Z,35.50
2023-01-09T19:13:45.359Z,49.03
2023-01-09T19:16:12.435Z,33.47
2023-01-09T19:18:41.435Z,19.50
2023-01-09T19:21:23.756Z,22.63
2023-01-09T19:23:50.749Z,25.83
2023-01-09T19:26:20.829Z,28.63
2023-01-09T19:28:48.352Z,42.85
2023-01-09T19:31:16.328Z,38.53
2023-01-09T19:33:45.360Z,37.30
2023-01-09T19:36:13.522Z,26.45
2023-01-09T19:38:41.811Z,26.15
2023-01-09T19:41:15.725Z,43.65
2023-01-09T19:43:44.563Z,35.30
2023-01-09T19:46:19.794Z,32.42
2023-01-09T19:48:48.776Z,39.53
2023-01-09T19:51:19.602Z,26.52
2023-01-09T19:53:56.535Z,30.38
2023-01-09T19:56:29.891Z,33.38
2023-01-09T19:59:05.508Z,36.72
2023-01-09T20:01:38.552Z,33.65
2023-01-09T20:04:15.038Z,34.13
2023-01-09T20:06:46.610Z,33.65
2023-01-09T20:09:18.049Z,27.13
2023-01-09T20:11:46.682Z,36.55
2023-01-09T20:14:20.433Z,36.72
2023-01-09T20:16:56.669Z,40.85
2023-01-09T20:19:25.666Z,43.88
2023-01-09T20:21:54.420Z,39.83
2023-01-09T20:24:22.146Z,43.63
2023-01-09T20:26:50.357Z,46.97
2023-01-09T20:29:31.305Z,39.50
2023-01-09T20:31:58.899Z,51.80
2023-01-09T20:34:28.205Z,30.02
2023-01-09T20:36:56.734Z,30.83
2023-01-09T20:39:23.969Z,25.02
2023-01-09T20:41:51.238Z,22.73
2023-01-09T20:44:18.465Z,29.90
2023-01-09T20:46:49.667Z,31.70
2023-01-09T20:51:53.238Z,38.80
2023-01-09T20:54:25.938Z,31.23
2023-01-09T20:56:53.776Z,20.63
2023-01-09T20:59:21.265Z,20.58
2023-01-09T21:01:48.345Z,20.55
2023-01-09T21:04:15.519Z,26.98
2023-01-09T21:06:42.768Z,46.60
2023-01-09T21:09:09.695Z,39.00
2023-01-09T21:11:36.668Z,37.78
2023-01-09T21:14:03.693Z,60.88
2023-01-09T21:16:30.814Z,56.38
2023-01-09T21:18:58.046Z,63.70
2023-01-09T21:21:27.732Z,56.50
2023-01-09T21:23:57.515Z,46.10
2023-01-09T21:26:28.306Z,42.22
2023-01-09T21:28:57.300Z,36.50
2023-01-09T21:31:29.913Z,33.35
2023-01-09T21:33:57.027Z,29.30
2023-01-09T21:36:24.130Z,30.08
2023-01-09T21:38:54.181Z,32.65
2023-01-09T21:41:40.112Z,17.20
2023-01-09T21:44:25.654Z,16.75
2023-01-09T21:46:52.755Z,16.33
2023-01-09T21:49:20.762Z,17.55
2023-01-09T21:51:47.866Z,17.58
2023-01-09T21:54:14.922Z,17.80
2023-01-09T21:56:41.867Z,22.83
2023-01-09T21:59:08.997Z,32.10
2023-01-09T22:01:36.270Z,39.70
2023-01-09T22:04:03.735Z,53.67
2023-01-09T22:06:30.716Z,51.85
2023-01-09T22:08:57.620Z,47.60
2023-01-09T22:11:24.575Z,51.13
2023-01-09T22:13:52.325Z,50.75
2023-01-09T22:16:19.575Z,52.78
2023-01-09T22:18:46.908Z,61.90
2023-01-09T22:21:13.810Z,55.10
2023-01-09T22:23:40.694Z,54.95
2023-01-09T22:26:12.468Z,72.53
2023-01-09T22:28:39.984Z,58.97
2023-01-09T22:31:12.608Z,64.82
2023-01-09T22:33:39.726Z,50.05
2023-01-09T22:36:08.431Z,50.03
2023-01-09T22:38:35.666Z,58.85
2023-01-09T22:41:03.156Z,42.47
2023-01-09T22:43:31.016Z,48.30
2023-01-09T22:46:04.540Z,52.38
2023-01-09T22:48:32.531Z,52.47
2023-01-09T22:51:01.406Z,51.20
2023-01-09T22:53:29.354Z,52.13
2023-01-09T22:56:01.158Z,55.58
2023-01-09T22:58:29.181Z,54.05
2023-01-09T23:00:56.548Z,55.03
2023-01-09T23:03:24.055Z,50.05
2023-01-09T23:06:02.437Z,53.95
2023-01-09T23:08:30.565Z,59.95
2023-01-09T23:10:57.815Z,60.83
2023-01-09T23:13:25.622Z,61.22
2023-01-09T23:15:53.072Z,66.85
2023-01-09T23:18:20.084Z,59.60
2023-01-09T23:20:58.842Z,57.55
2023-01-09T23:23:27.716Z,59.63
2023-01-09T23:25:57.903Z,57.47
2023-01-09T23:28:26.103Z,41.20
2023-01-09T23:30:53.673Z,38.53
2023-01-09T23:33:21.512Z,33.75
2023-01-09T23:35:49.054Z,33.33
2023-01-09T23:38:16.417Z,40.50
2023-01-09T23:40:43.289Z,33.10
2023-01-09T23:43:15.260Z,30.85
2023-01-09T23:45:46.345Z,28.95
2023-01-09T23:48:15.815Z,34.78
2023-01-09T23:50:44.921Z,41.65
2023-01-09T23:53:11.766Z,33.78
2023-01-09T23:55:38.833Z,31.33
2023-01-09T23:58:05.654Z,28.90
